Time;durP1;ratioP1;P1;durP2;ratioP2;P2;SDS_P1;SDS_P2;PMS_P1;PMS_P2;Temp;Humidity;BMP_temperature;BMP_pressure;BME280_temperature;BME280_humidity;BME280_pressure;Samples;Min_cycle;Max_cycle;Signal;HPM_P1;HPM_P2
2021/12/27 00:00:52;;;;;;;25.73;21.38;;;0.20;99.90;;;;;;5115478;28;20035;-78
2021/12/27 00:03:18;;;;;;;25.20;21.50;;;0.20;99.90;;;;;;5097031;28;20048;-78
2021/12/27 00:05:44;;;;;;;27.38;22.90;;;0.20;99.90;;;;;;5096530;28;20264;-77
2021/12/27 00:08:09;;;;;;;27.20;21.35;;;0.20;99.90;;;;;;5100323;28;20050;-78
2021/12/27 00:10:35;;;;;;;26.52;21.92;;;0.20;99.90;;;;;;5115622;28;20048;-78
2021/12/27 00:13:02;;;;;;;24.75;20.88;;;0.20;99.90;;;;;;5112908;28;20036;-78
2021/12/27 00:15:28;;;;;;;25.88;21.15;;;0.30;99.90;;;;;;5097434;28;20054;-78
2021/12/27 00:17:54;;;;;;;26.27;22.70;;;0.20;99.90;;;;;;5096261;28;20048;-78
2021/12/27 00:20:20;;;;;;;26.27;22.17;;;0.20;99.90;;;;;;5114730;28;20173;-78
2021/12/27 00:22:48;;;;;;;25.63;22.33;;;0.30;99.90;;;;;;5111917;28;20054;-78
2021/12/27 00:25:14;;;;;;;27.73;23.05;;;0.30;99.90;;;;;;5102016;28;20082;-78
2021/12/27 00:27:40;;;;;;;26.85;22.77;;;0.30;99.90;;;;;;5112114;28;20039;-73
2021/12/27 00:30:08;;;;;;;26.15;22.45;;;0.20;99.90;;;;;;5098364;28;20505;-78
2021/12/27 00:32:36;;;;;;;26.85;22.63;;;0.30;99.90;;;;;;5102840;28;20122;-78
2021/12/27 00:35:04;;;;;;;25.95;22.58;;;0.30;99.90;;;;;;5094718;28;20717;-77
2021/12/27 00:37:30;;;;;;;27.42;23.70;;;0.30;99.90;;;;;;5075287;28;20106;-78
2021/12/27 00:39:55;;;;;;;27.35;22.92;;;0.40;99.90;;;;;;5073580;28;20435;-78
2021/12/27 00:42:21;;;;;;;26.85;22.52;;;0.30;99.90;;;;;;5113371;28;20094;-78
2021/12/27 00:44:47;;;;;;;26.40;22.83;;;0.40;99.90;;;;;;5114037;28;20032;-77
2021/12/27 00:47:12;;;;;;;27.33;23.20;;;0.30;99.90;;;;;;5112788;28;20503;-77
2021/12/27 00:49:38;;;;;;;28.98;24.13;;;0.30;99.90;;;;;;5095510;28;20052;-78
2021/12/27 00:52:04;;;;;;;27.23;22.60;;;0.30;99.90;;;;;;5110042;28;20043;-78
2021/12/27 00:54:30;;;;;;;30.50;22.40;;;0.30;99.90;;;;;;5097262;28;20267;-78
2021/12/27 00:56:55;;;;;;;26.98;22.77;;;0.40;99.90;;;;;;5094855;28;20044;-77
2021/12/27 00:59:21;;;;;;;26.05;22.45;;;0.30;99.90;;;;;;5110794;28;20047;-78
2021/12/27 01:01:47;;;;;;;26.20;23.10;;;0.30;99.90;;;;;;5111877;28;20040;-76
2021/12/27 01:04:13;;;;;;;28.25;23.45;;;0.30;99.90;;;;;;5093715;28;20040;-78
2021/12/27 01:06:38;;;;;;;28.42;22.95;;;0.30;99.90;;;;;;5096292;28;20044;-78
2021/12/27 01:09:04;;;;;;;26.75;22.60;;;0.40;99.90;;;;;;5094424;28;20062;-78
2021/12/27 01:12:09;;;;;;;27.95;23.25;;;0.40;99.90;;;;;;5100315;28;20052;-78
2021/12/27 01:14:44;;;;;;;;;;;0.40;99.90;;;;;;5074759;28;20052;-78
2021/12/27 01:17:11;;;;;;;27.67;23.08;;;0.40;99.90;;;;;;5107640;28;20340;-78
2021/12/27 01:19:37;;;;;;;28.40;23.52;;;0.40;99.90;;;;;;5113591;28;20054;-77
2021/12/27 01:22:03;;;;;;;29.83;24.60;;;0.40;99.90;;;;;;5111485;28;20078;-78
2021/12/27 01:24:29;;;;;;;28.60;24.77;;;0.40;99.90;;;;;;5108121;28;20452;-78
2021/12/27 01:26:55;;;;;;;28.83;24.38;;;0.40;99.90;;;;;;5114465;28;20086;-77
2021/12/27 01:29:21;;;;;;;28.95;24.80;;;0.40;99.90;;;;;;5104793;28;20127;-78
2021/12/27 01:31:46;;;;;;;28.50;23.67;;;0.40;99.90;;;;;;5107253;28;20049;-78
2021/12/27 01:34:12;;;;;;;28.25;24.70;;;0.40;99.90;;;;;;5103744;28;20442;-78
2021/12/27 01:36:39;;;;;;;28.88;24.65;;;0.40;99.90;;;;;;5094687;28;20508;-78
2021/12/27 01:39:05;;;;;;;28.52;24.30;;;0.40;99.90;;;;;;5102278;28;20082;-78
2021/12/27 01:41:32;;;;;;;27.83;24.63;;;0.40;99.90;;;;;;5101757;28;20397;-78
2021/12/27 01:43:58;;;;;;;28.80;24.58;;;0.50;99.90;;;;;;5100474;28;20032;-77
2021/12/27 01:46:26;;;;;;;29.48;25.05;;;0.40;99.90;;;;;;5114649;28;20043;-78
2021/12/27 01:48:56;;;;;;;30.20;24.48;;;0.40;99.90;;;;;;5100927;28;20419;-74
2021/12/27 01:51:25;;;;;;;29.73;25.17;;;0.40;99.90;;;;;;5107645;28;20093;-78
2021/12/27 01:53:51;;;;;;;30.63;25.40;;;0.40;99.90;;;;;;5098553;28;20051;-78
2021/12/27 01:56:20;;;;;;;27.13;24.15;;;0.40;99.90;;;;;;5114042;28;20059;-78
2021/12/27 01:58:46;;;;;;;30.85;25.38;;;0.40;99.90;;;;;;5109096;28;20040;-78
2021/12/27 02:01:13;;;;;;;29.77;24.92;;;0.40;99.90;;;;;;5095899;28;20047;-78
2021/12/27 02:03:40;;;;;;;31.05;26.42;;;0.40;99.90;;;;;;5114220;28;20088;-78
2021/12/27 02:06:08;;;;;;;30.08;25.23;;;0.40;99.90;;;;;;5112321;28;20054;-78
2021/12/27 02:08:36;;;;;;;29.75;25.27;;;0.40;99.90;;;;;;5093918;28;20044;-78
2021/12/27 02:11:03;;;;;;;30.90;26.25;;;0.40;99.90;;;;;;5092459;28;20087;-79
2021/12/27 02:13:28;;;;;;;30.48;24.80;;;0.40;99.90;;;;;;5098062;28;20483;-78
2021/12/27 02:15:54;;;;;;;31.00;25.92;;;0.40;99.90;;;;;;5093782;28;20123;-78
2021/12/27 02:18:20;;;;;;;31.23;26.95;;;0.50;99.90;;;;;;5094587;28;20105;-78
2021/12/27 02:20:46;;;;;;;30.48;25.50;;;0.40;99.90;;;;;;5093610;28;20126;-78
2021/12/27 02:23:17;;;;;;;32.20;26.30;;;0.40;99.90;;;;;;5109644;28;20042;-78
2021/12/27 02:25:49;;;;;;;29.08;25.38;;;0.50;99.90;;;;;;5100206;28;20546;-78
2021/12/27 02:28:15;;;;;;;31.17;25.92;;;0.50;99.90;;;;;;5106406;28;20100;-78
2021/12/27 02:30:43;;;;;;;31.58;26.23;;;0.50;99.90;;;;;;5112323;28;20058;-78
2021/12/27 02:33:10;;;;;;;31.80;27.17;;;0.50;99.90;;;;;;5112048;28;20101;-78
2021/12/27 02:35:39;;;;;;;29.85;25.48;;;0.50;99.90;;;;;;5095303;28;20097;-78
2021/12/27 02:38:07;;;;;;;30.65;26.38;;;0.50;99.90;;;;;;5106547;28;20047;-78
2021/12/27 02:40:35;;;;;;;34.60;26.58;;;0.50;99.90;;;;;;5113563;28;20108;-78
2021/12/27 02:43:28;;;;;;;32.50;26.17;;;0.50;99.90;;;;;;5112439;28;20046;-74
2021/12/27 02:46:03;;;;;;;33.60;27.58;;;0.50;99.90;;;;;;5112146;28;20135;-78
2021/12/27 02:48:38;;;;;;;30.52;26.10;;;0.50;99.90;;;;;;5093539;28;20040;-78
2021/12/27 02:51:05;;;;;;;32.55;26.58;;;0.50;99.90;;;;;;5109711;28;20377;-78
2021/12/27 02:53:31;;;;;;;30.98;26.50;;;0.50;99.90;;;;;;5113232;28;20059;-78
2021/12/27 02:55:59;;;;;;;32.75;26.90;;;0.50;99.90;;;;;;5100442;28;20569;-78
2021/12/27 02:58:26;;;;;;;33.55;27.67;;;0.50;99.90;;;;;;5092521;28;20049;-78
2021/12/27 03:01:05;;;;;;;33.03;27.52;;;0.60;99.90;;;;;;5103713;28;20108;-78
2021/12/27 03:03:31;;;;;;;34.63;27.52;;;0.60;99.90;;;;;;5110839;28;20044;-78
2021/12/27 03:05:57;;;;;;;32.83;28.13;;;0.60;99.90;;;;;;5100569;28;20048;-79
2021/12/27 03:08:24;;;;;;;31.02;27.45;;;0.60;99.90;;;;;;5092310;28;20040;-78
2021/12/27 03:10:52;;;;;;;32.80;28.17;;;0.60;99.90;;;;;;5102154;28;20047;-78
2021/12/27 03:13:26;;;;;;;32.10;26.70;;;0.60;99.90;;;;;;5112673;28;20400;-78
2021/12/27 03:15:54;;;;;;;33.35;27.25;;;0.60;99.90;;;;;;5103329;28;20044;-77
2021/12/27 03:18:21;;;;;;;34.63;28.40;;;0.50;99.90;;;;;;5111368;28;20373;-78
2021/12/27 03:20:47;;;;;;;34.30;27.38;;;0.50;99.90;;;;;;5102237;28;20409;-78
2021/12/27 03:23:13;;;;;;;35.70;28.35;;;0.50;99.90;;;;;;5092015;28;20048;-78
2021/12/27 03:25:39;;;;;;;35.42;28.67;;;0.50;99.90;;;;;;5093952;28;20047;-78
2021/12/27 03:28:06;;;;;;;35.28;28.55;;;0.50;99.90;;;;;;5092461;28;20047;-73
2021/12/27 03:30:31;;;;;;;33.65;28.05;;;0.50;99.90;;;;;;5100641;28;20040;-77
2021/12/27 03:32:58;;;;;;;32.13;27.27;;;0.60;99.90;;;;;;5112956;28;20125;-78
2021/12/27 03:35:34;;;;;;;34.83;28.67;;;0.60;99.90;;;;;;5103928;28;20439;-78
2021/12/27 03:38:00;;;;;;;35.08;27.83;;;0.60;99.90;;;;;;5107887;28;20048;-78
2021/12/27 03:40:27;;;;;;;33.83;27.77;;;0.60;99.90;;;;;;5107371;28;20484;-77
2021/12/27 03:42:54;;;;;;;33.65;27.67;;;0.70;99.90;;;;;;5096565;28;20044;-78
2021/12/27 03:45:39;;;;;;;35.15;28.55;;;0.60;99.90;;;;;;5095567;28;20365;-78
2021/12/27 03:48:07;;;;;;;34.15;27.92;;;0.60;99.90;;;;;;5098709;28;20405;-78
2021/12/27 03:50:34;;;;;;;35.42;28.85;;;0.60;99.90;;;;;;5098377;28;20122;-78
2021/12/27 03:53:00;;;;;;;36.05;28.50;;;0.60;99.90;;;;;;5096111;28;20041;-78
2021/12/27 03:55:27;;;;;;;35.25;28.23;;;0.60;99.90;;;;;;5092108;28;20127;-79
2021/12/27 03:58:06;;;;;;;33.50;27.70;;;0.70;99.90;;;;;;5101035;28;20071;-78
2021/12/27 04:00:58;;;;;;;32.50;27.42;;;0.60;99.90;;;;;;5110393;28;20039;-78
2021/12/27 04:03:24;;;;;;;34.38;28.25;;;0.60;99.90;;;;;;5112083;28;20051;-78
2021/12/27 04:05:50;;;;;;;33.80;27.58;;;0.60;99.90;;;;;;5109151;28;20047;-78
2021/12/27 04:08:18;;;;;;;34.22;28.45;;;0.70;99.90;;;;;;5112174;28;20480;-78
2021/12/27 04:10:44;;;;;;;33.58;28.45;;;0.60;99.90;;;;;;5103542;28;20044;-78
2021/12/27 04:13:11;;;;;;;33.92;28.42;;;0.60;99.90;;;;;;5092192;28;20101;-74
2021/12/27 04:15:38;;;;;;;34.00;27.92;;;0.60;99.90;;;;;;5097234;28;20050;-78
2021/12/27 04:18:05;;;;;;;33.58;28.27;;;0.60;99.90;;;;;;5105053;28;20480;-78
2021/12/27 04:20:31;;;;;;;33.22;27.52;;;0.70;99.90;;;;;;5105643;28;20748;-78
2021/12/27 04:22:57;;;;;;;32.92;28.17;;;0.70;99.90;;;;;;5096588;28;20067;-78
2021/12/27 04:25:23;;;;;;;33.53;27.27;;;0.70;99.90;;;;;;5110258;28;20130;-78
2021/12/27 04:27:50;;;;;;;31.85;27.17;;;0.70;99.90;;;;;;5092129;28;20076;-78
2021/12/27 04:30:17;;;;;;;35.15;28.25;;;0.70;99.90;;;;;;5091336;28;20051;-77
2021/12/27 04:32:43;;;;;;;35.53;29.05;;;0.70;99.90;;;;;;5090780;28;20106;-78
2021/12/27 04:35:10;;;;;;;34.67;28.55;;;0.70;99.90;;;;;;5098934;28;20040;-78
2021/12/27 04:37:35;;;;;;;34.33;28.08;;;0.70;99.90;;;;;;5115454;28;20045;-78
2021/12/27 04:40:05;;;;;;;35.13;28.85;;;0.70;99.90;;;;;;5112427;28;20111;-78
2021/12/27 04:42:31;;;;;;;34.25;28.95;;;0.70;99.90;;;;;;5097325;28;20519;-78
2021/12/27 04:44:59;;;;;;;35.85;28.92;;;0.70;99.90;;;;;;5113718;27;20500;-78
2021/12/27 04:47:25;;;;;;;32.92;27.65;;;0.70;99.90;;;;;;5113546;28;20105;-78
2021/12/27 04:49:51;;;;;;;34.47;28.17;;;0.70;99.90;;;;;;5114808;28;20047;-78
2021/12/27 04:52:17;;;;;;;32.85;27.67;;;0.80;99.90;;;;;;5095001;28;20120;-74
2021/12/27 04:54:43;;;;;;;35.28;29.05;;;0.80;99.90;;;;;;5100338;28;20060;-78
2021/12/27 04:57:09;;;;;;;34.00;27.73;;;0.80;99.90;;;;;;5095786;28;20052;-78
2021/12/27 04:59:35;;;;;;;35.08;28.80;;;0.80;99.90;;;;;;5094645;28;20409;-78
2021/12/27 05:02:01;;;;;;;36.92;28.65;;;0.80;99.90;;;;;;5111765;28;20047;-78
2021/12/27 05:04:27;;;;;;;36.13;29.25;;;0.80;99.90;;;;;;5114374;27;20039;-77
2021/12/27 05:06:53;;;;;;;33.85;28.35;;;0.80;99.90;;;;;;5108443;28;20054;-79
2021/12/27 05:09:18;;;;;;;35.53;29.52;;;0.80;99.90;;;;;;5094748;28;20055;-74
2021/12/27 05:11:44;;;;;;;34.30;29.25;;;0.80;99.90;;;;;;5113444;28;20515;-78
2021/12/27 05:14:11;;;;;;;35.28;29.08;;;0.80;99.90;;;;;;5115353;28;20135;-79
2021/12/27 05:16:37;;;;;;;35.42;29.25;;;0.80;99.90;;;;;;5114140;28;20056;-79
2021/12/27 05:19:03;;;;;;;36.67;29.83;;;0.80;99.90;;;;;;5114961;28;20503;-78
2021/12/27 05:21:28;;;;;;;37.10;29.08;;;0.80;99.90;;;;;;5111341;28;20051;-78
2021/12/27 05:23:54;;;;;;;34.15;28.80;;;0.80;99.90;;;;;;5115260;28;20044;-78
2021/12/27 05:26:20;;;;;;;38.78;30.52;;;0.80;99.90;;;;;;5109999;28;20096;-73
2021/12/27 05:28:46;;;;;;;36.28;28.77;;;0.90;99.90;;;;;;5113454;28;20113;-78
2021/12/27 05:31:11;;;;;;;36.08;29.25;;;0.90;99.90;;;;;;5098316;28;20040;-78
2021/12/27 05:33:37;;;;;;;36.90;29.58;;;0.90;99.90;;;;;;5112771;28;20052;-78
2021/12/27 05:36:03;;;;;;;35.55;28.73;;;0.90;99.90;;;;;;5099913;28;20044;-78
2021/12/27 05:38:29;;;;;;;36.95;29.98;;;0.90;99.90;;;;;;5093622;28;20524;-78
2021/12/27 05:40:56;;;;;;;37.17;29.35;;;0.90;99.90;;;;;;5094394;28;20048;-79
2021/12/27 05:43:23;;;;;;;37.30;30.02;;;0.90;99.90;;;;;;5094058;28;20040;-74
2021/12/27 05:45:50;;;;;;;37.40;28.92;;;0.90;99.90;;;;;;5098408;28;20036;-79
2021/12/27 05:48:15;;;;;;;34.75;28.35;;;0.90;99.90;;;;;;5092733;28;20040;-78
2021/12/27 05:50:42;;;;;;;35.70;29.75;;;0.90;99.90;;;;;;5102459;28;20104;-78
2021/12/27 05:53:08;;;;;;;37.10;29.80;;;1.00;99.90;;;;;;5114569;28;20043;-79
2021/12/27 05:55:34;;;;;;;36.40;30.05;;;1.00;99.90;;;;;;5111449;28;20056;-78
2021/12/27 05:58:01;;;;;;;36.28;29.35;;;1.00;99.90;;;;;;5114451;28;20055;-79
2021/12/27 06:00:27;;;;;;;37.17;29.42;;;0.90;99.90;;;;;;5108680;28;20049;-74
2021/12/27 06:02:54;;;;;;;38.65;30.30;;;1.00;99.90;;;;;;5113257;28;20060;-78
2021/12/27 06:05:22;;;;;;;36.53;30.08;;;0.90;99.90;;;;;;5105026;28;20048;-79
2021/12/27 06:07:48;;;;;;;37.20;29.88;;;1.00;99.90;;;;;;5093486;28;20130;-79
2021/12/27 06:10:14;;;;;;;37.90;30.45;;;1.00;99.90;;;;;;5101275;28;20039;-79
2021/12/27 06:12:40;;;;;;;38.30;30.83;;;0.90;99.90;;;;;;5113510;28;20105;-79
2021/12/27 06:15:07;;;;;;;38.22;31.40;;;0.90;99.90;;;;;;5108074;27;20048;-79
2021/12/27 06:17:33;;;;;;;37.97;30.92;;;1.00;99.90;;;;;;5093016;28;20052;-79
2021/12/27 06:20:00;;;;;;;38.42;31.85;;;0.90;99.90;;;;;;5094827;28;20461;-79
2021/12/27 06:22:28;;;;;;;39.25;31.25;;;1.00;99.90;;;;;;5093794;28;20455;-79
2021/12/27 06:24:54;;;;;;;38.63;31.08;;;1.00;99.90;;;;;;5095002;28;20051;-79
2021/12/27 06:27:19;;;;;;;37.85;31.15;;;1.00;99.90;;;;;;5095455;28;20409;-79
2021/12/27 06:29:45;;;;;;;39.70;31.33;;;1.00;99.90;;;;;;5093945;28;20051;-80
2021/12/27 06:32:13;;;;;;;39.83;32.08;;;0.90;99.90;;;;;;5077842;28;20044;-79
2021/12/27 06:34:42;;;;;;;40.00;30.77;;;0.90;99.90;;;;;;5096743;28;20035;-79
2021/12/27 06:37:07;;;;;;;38.92;31.30;;;1.00;99.90;;;;;;5111888;28;20046;-79
2021/12/27 06:39:33;;;;;;;38.92;31.55;;;0.90;99.90;;;;;;5105391;28;20044;-78
2021/12/27 06:41:59;;;;;;;39.38;31.77;;;1.00;99.90;;;;;;5093478;28;20044;-79
2021/12/27 06:44:25;;;;;;;40.47;31.60;;;1.00;99.90;;;;;;5092419;28;20036;-79
2021/12/27 06:46:52;;;;;;;39.90;31.30;;;1.00;99.90;;;;;;5092567;28;20044;-79
2021/12/27 06:49:18;;;;;;;45.58;33.05;;;1.00;99.90;;;;;;5095898;28;20568;-79
2021/12/27 06:51:44;;;;;;;38.13;31.67;;;1.00;99.90;;;;;;5104349;28;20485;-80
2021/12/27 06:54:10;;;;;;;43.92;33.08;;;1.00;99.90;;;;;;5094999;28;20117;-80
2021/12/27 06:56:35;;;;;;;40.67;32.25;;;1.00;99.90;;;;;;5109376;28;20094;-79
2021/12/27 06:59:02;;;;;;;39.47;31.27;;;1.00;99.90;;;;;;5093342;28;20059;-80
2021/12/27 07:01:28;;;;;;;40.67;31.73;;;1.00;99.90;;;;;;5104232;28;20051;-80
2021/12/27 07:03:54;;;;;;;39.35;31.33;;;1.00;99.90;;;;;;5105360;28;20035;-79
2021/12/27 07:06:22;;;;;;;38.95;31.23;;;1.10;99.90;;;;;;5092814;28;20043;-80
2021/12/27 07:08:47;;;;;;;41.10;31.75;;;1.00;99.90;;;;;;5093437;28;20055;-80
2021/12/27 07:11:14;;;;;;;42.13;31.50;;;1.00;99.90;;;;;;5105992;28;20048;-80
2021/12/27 07:13:39;;;;;;;41.88;31.83;;;1.00;99.90;;;;;;5096356;28;20044;-80
2021/12/27 07:16:05;;;;;;;40.63;31.88;;;1.10;99.90;;;;;;5113150;28;20504;-80
2021/12/27 07:18:31;;;;;;;41.67;32.13;;;1.10;99.90;;;;;;5110293;28;20048;-80
2021/12/27 07:20:57;;;;;;;39.42;31.30;;;1.10;99.90;;;;;;5112516;28;20054;-81
2021/12/27 07:23:23;;;;;;;40.03;32.22;;;1.10;99.90;;;;;;5109804;28;20035;-81
2021/12/27 07:25:49;;;;;;;41.30;31.77;;;1.10;99.90;;;;;;5095853;28;20044;-80
2021/12/27 07:28:15;;;;;;;38.47;30.98;;;1.10;99.90;;;;;;5104115;28;20077;-80
2021/12/27 07:30:41;;;;;;;42.58;31.92;;;1.10;99.90;;;;;;5112373;28;20054;-80
2021/12/27 07:33:06;;;;;;;43.10;31.58;;;1.10;99.90;;;;;;5108429;28;20039;-80
2021/12/27 07:35:32;;;;;;;40.50;30.92;;;1.10;99.90;;;;;;5111201;28;20139;-81
2021/12/27 07:37:58;;;;;;;44.08;32.63;;;1.20;99.90;;;;;;5099856;28;20044;-81
2021/12/27 07:40:24;;;;;;;40.03;31.70;;;1.10;99.90;;;;;;5092561;28;20076;-81
2021/12/27 07:42:49;;;;;;;39.33;30.88;;;1.10;99.90;;;;;;5100491;28;20048;-80
2021/12/27 07:45:15;;;;;;;39.67;31.95;;;1.10;99.90;;;;;;5104863;28;20082;-81
2021/12/27 07:47:41;;;;;;;41.33;31.38;;;1.10;99.90;;;;;;5101168;28;20127;-74
2021/12/27 07:50:07;;;;;;;41.53;31.48;;;1.10;99.90;;;;;;5110816;28;20039;-81
2021/12/27 07:52:33;;;;;;;43.33;31.63;;;1.10;99.90;;;;;;5097493;28;20104;-81
2021/12/27 07:54:59;;;;;;;44.05;32.15;;;1.20;99.90;;;;;;5099018;28;20048;-81
2021/12/27 07:57:25;;;;;;;42.00;31.83;;;1.20;99.90;;;;;;5092144;28;20048;-81
2021/12/27 07:59:50;;;;;;;47.22;33.53;;;1.20;99.90;;;;;;5097163;28;20048;-81
2021/12/27 08:02:17;;;;;;;41.83;31.25;;;1.20;99.90;;;;;;5111751;28;20059;-82
2021/12/27 08:04:43;;;;;;;45.58;32.50;;;1.20;99.90;;;;;;5107070;28;20109;-74
2021/12/27 08:07:09;;;;;;;43.70;32.10;;;1.20;99.90;;;;;;5092247;28;20507;-79
2021/12/27 08:09:35;;;;;;;47.15;32.60;;;1.20;99.90;;;;;;5099614;28;20101;-79
2021/12/27 08:12:01;;;;;;;46.15;32.67;;;1.20;99.90;;;;;;5111864;27;20508;-80
2021/12/27 08:14:27;;;;;;;47.63;33.88;;;1.20;99.90;;;;;;5096981;28;20036;-78
2021/12/27 08:16:52;;;;;;;44.60;32.92;;;1.30;99.90;;;;;;5113956;28;20043;-78
2021/12/27 08:19:18;;;;;;;48.88;33.55;;;1.20;99.90;;;;;;5116069;28;20543;-79
2021/12/27 08:21:44;;;;;;;49.30;33.08;;;1.30;99.90;;;;;;5075119;28;20044;-79
2021/12/27 08:24:10;;;;;;;45.42;32.53;;;1.30;99.90;;;;;;5075803;28;20084;-80
2021/12/27 08:26:36;;;;;;;50.28;34.28;;;1.30;99.90;;;;;;5110737;28;20481;-80
2021/12/27 08:29:05;;;;;;;48.15;34.08;;;1.30;99.90;;;;;;5116026;28;20088;-80
2021/12/27 08:31:31;;;;;;;51.03;34.85;;;1.30;99.90;;;;;;5098237;27;20135;-80
2021/12/27 08:33:56;;;;;;;52.25;34.72;;;1.30;99.90;;;;;;5095544;28;20497;-80
2021/12/27 08:36:22;;;;;;;48.35;32.53;;;1.40;99.90;;;;;;5100754;28;20043;-81
2021/12/27 08:38:49;;;;;;;49.65;34.20;;;1.40;99.90;;;;;;5115916;28;20494;-80
2021/12/27 08:41:15;;;;;;;55.80;35.45;;;1.40;99.90;;;;;;5099085;27;20476;-82
2021/12/27 08:43:42;;;;;;;58.30;34.85;;;1.40;99.90;;;;;;5095335;28;20044;-77
2021/12/27 08:46:08;;;;;;;53.17;35.80;;;1.40;99.90;;;;;;5111517;28;20053;-80
2021/12/27 08:48:34;;;;;;;58.63;36.53;;;1.50;99.90;;;;;;5116130;28;20070;-82
2021/12/27 08:51:00;;;;;;;61.97;37.75;;;1.50;99.90;;;;;;5107623;28;20481;-82
2021/12/27 08:53:26;;;;;;;60.10;36.95;;;1.50;99.90;;;;;;5095629;28;20040;-82
2021/12/27 08:55:53;;;;;;;68.57;39.38;;;1.50;99.90;;;;;;5107977;28;20047;-82
2021/12/27 08:58:19;;;;;;;67.80;38.47;;;1.50;99.90;;;;;;5115831;28;20070;-82
2021/12/27 09:00:45;;;;;;;67.85;39.13;;;1.50;99.90;;;;;;5111139;28;20476;-83
2021/12/27 09:03:11;;;;;;;67.57;39.97;;;1.50;99.90;;;;;;5096445;28;20050;-83
2021/12/27 09:05:41;;;;;;;69.57;41.35;;;1.50;99.90;;;;;;5105251;28;20040;-86
2021/12/27 09:08:08;;;;;;;75.28;41.63;;;1.50;99.90;;;;;;5094644;28;20039;-83
2021/12/27 09:10:34;;;;;;;72.22;42.40;;;1.50;99.90;;;;;;5104018;28;20044;-82
2021/12/27 09:13:00;;;;;;;78.32;41.97;;;1.50;99.90;;;;;;5113488;28;20100;-82
2021/12/27 09:15:30;;;;;;;74.15;42.80;;;1.50;99.90;;;;;;5106142;28;20056;-83
2021/12/27 09:17:56;;;;;;;77.15;42.72;;;1.50;99.90;;;;;;5091232;28;20048;-75
2021/12/27 09:20:24;;;;;;;80.68;42.88;;;1.50;99.90;;;;;;5101475;28;20047;-82
2021/12/27 09:22:50;;;;;;;77.00;41.33;;;1.50;99.90;;;;;;5094703;28;20044;-76
2021/12/27 09:25:15;;;;;;;83.20;43.95;;;1.60;99.90;;;;;;5095703;28;20104;-79
2021/12/27 09:27:41;;;;;;;87.35;45.15;;;1.60;99.90;;;;;;5111727;28;20051;-84
2021/12/27 09:30:08;;;;;;;97.35;46.53;;;1.60;99.90;;;;;;5108353;28;20048;-84
2021/12/27 09:32:33;;;;;;;95.88;45.33;;;1.60;99.90;;;;;;5091218;28;20511;-78
2021/12/27 09:34:59;;;;;;;98.63;48.10;;;1.60;99.90;;;;;;5102512;28;20036;-86
2021/12/27 09:37:25;;;;;;;95.43;47.83;;;1.60;99.90;;;;;;5090869;28;20044;-85
2021/12/27 09:39:53;;;;;;;104.93;48.33;;;1.60;99.90;;;;;;5091289;28;20049;-76
2021/12/27 09:42:24;;;;;;;107.35;48.90;;;1.60;99.90;;;;;;5100210;28;20055;-85
2021/12/27 09:44:51;;;;;;;;;;;1.70;99.90;;;;;;5091634;28;20507;-83
2021/12/27 09:47:17;;;;;;;112.50;46.97;;;1.60;99.90;;;;;;5094950;28;19924;-85
2021/12/27 09:49:45;;;;;;;111.13;50.50;;;1.60;99.90;;;;;;5093152;28;20052;-85
2021/12/27 09:52:11;;;;;;;121.10;50.70;;;1.70;99.90;;;;;;5103271;28;20050;-86
2021/12/27 09:54:37;;;;;;;128.50;52.47;;;1.70;99.90;;;;;;5091585;28;20158;-85
2021/12/27 09:57:04;;;;;;;122.55;53.70;;;1.70;99.90;;;;;;5091755;28;20121;-85
2021/12/27 09:59:30;;;;;;;140.13;54.20;;;1.80;99.90;;;;;;5096639;28;20047;-82
2021/12/27 10:01:56;;;;;;;127.97;53.08;;;1.80;99.90;;;;;;5104026;28;20058;-76
2021/12/27 10:04:21;;;;;;;127.32;54.67;;;1.80;99.90;;;;;;5102932;28;20124;-87
2021/12/27 10:06:47;;;;;;;121.38;51.22;;;1.80;99.90;;;;;;5103517;28;20047;-81
2021/12/27 10:09:13;;;;;;;128.75;53.10;;;1.80;99.90;;;;;;5095179;28;20051;-88
2021/12/27 10:11:42;;;;;;;118.40;51.72;;;1.80;99.90;;;;;;5092501;28;20687;-77
2021/12/27 10:14:23;;;;;;;124.55;52.08;;;1.90;99.90;;;;;;5099937;28;20110;-81
2021/12/27 10:17:07;;;;;;;130.50;53.85;;;1.90;99.90;;;;;;5090650;28;20093;-85
2021/12/27 10:19:33;;;;;;;136.40;53.20;;;1.90;99.90;;;;;;5104619;28;20130;-87
2021/12/27 10:21:59;;;;;;;136.30;55.40;;;1.90;99.90;;;;;;5108724;28;20058;-83
2021/12/27 10:24:29;;;;;;;135.20;54.70;;;2.00;99.90;;;;;;5100279;28;20044;-86
2021/12/27 10:27:01;;;;;;;127.47;55.42;;;2.00;99.90;;;;;;5105028;28;20528;-87
2021/12/27 10:29:30;;;;;;;133.20;53.65;;;2.00;99.90;;;;;;5093465;28;20052;-82
2021/12/27 10:32:06;;;;;;;123.05;53.40;;;2.00;99.90;;;;;;5096912;28;20048;-80
2021/12/27 10:34:48;;;;;;;122.75;51.08;;;2.10;99.90;;;;;;5093297;28;20044;-86
2021/12/27 10:37:27;;;;;;;132.82;54.30;;;2.10;99.90;;;;;;5092693;28;20067;-88
2021/12/27 10:39:57;;;;;;;120.38;52.15;;;2.10;99.90;;;;;;5097748;28;20050;-80
2021/12/27 10:42:35;;;;;;;136.57;53.38;;;2.10;99.90;;;;;;5094630;28;20489;-86
2021/12/27 10:45:18;;;;;;;142.68;52.75;;;2.20;99.90;;;;;;5092390;28;20558;-73
2021/12/27 10:47:44;;;;;;;136.15;54.75;;;2.10;99.90;;;;;;5092922;28;20079;-86
2021/12/27 10:50:19;;;;;;;139.00;55.72;;;2.10;99.90;;;;;;5104120;28;20078;-78
2021/12/27 10:52:59;;;;;;;158.63;57.08;;;2.10;99.90;;;;;;5109784;28;20040;-83
2021/12/27 10:55:30;;;;;;;146.43;56.72;;;2.10;99.90;;;;;;5103407;28;20051;-87
2021/12/27 10:58:19;;;;;;;143.02;56.88;;;2.20;99.90;;;;;;5093672;28;20056;-86
2021/12/27 11:00:58;;;;;;;141.70;54.58;;;2.20;99.90;;;;;;5109195;28;20082;-87
2021/12/27 11:03:33;;;;;;;162.27;57.47;;;2.20;99.90;;;;;;5112736;28;20096;-81
2021/12/27 11:06:04;;;;;;;132.55;55.45;;;2.30;99.90;;;;;;5111451;28;20047;-86
2021/12/27 11:08:31;;;;;;;126.05;52.90;;;2.30;99.90;;;;;;5105662;28;20146;-85
2021/12/27 11:10:57;;;;;;;149.57;57.80;;;2.30;99.90;;;;;;5092895;28;20458;-85
2021/12/27 11:13:24;;;;;;;157.05;55.70;;;2.30;99.90;;;;;;5092278;28;20047;-85
2021/12/27 11:15:50;;;;;;;148.13;56.00;;;2.30;99.90;;;;;;5108221;28;20500;-86
2021/12/27 11:18:16;;;;;;;160.82;56.95;;;2.30;99.90;;;;;;5112519;28;20517;-87
2021/12/27 11:20:45;;;;;;;137.35;54.97;;;2.30;99.90;;;;;;5092989;28;20071;-85
2021/12/27 11:23:12;;;;;;;131.68;52.75;;;2.30;99.90;;;;;;5100851;28;20120;-84
2021/12/27 11:25:41;;;;;;;135.02;54.38;;;2.40;99.90;;;;;;5110829;28;20040;-85
2021/12/27 11:28:34;;;;;;;138.07;54.72;;;2.40;99.90;;;;;;5101581;28;20043;-76
2021/12/27 11:31:23;;;;;;;127.05;52.10;;;2.40;99.90;;;;;;5092106;28;20052;-85
2021/12/27 11:34:04;;;;;;;119.28;51.38;;;2.40;99.90;;;;;;5108745;28;20097;-84
2021/12/27 11:36:36;;;;;;;119.38;51.85;;;2.40;99.90;;;;;;5112299;28;20043;-86
2021/12/27 11:39:20;;;;;;;119.43;51.05;;;2.50;99.90;;;;;;5093719;28;20040;-83
2021/12/27 11:42:07;;;;;;;117.55;51.47;;;2.50;99.90;;;;;;5089981;28;20051;-85
2021/12/27 11:44:39;;;;;;;108.72;49.53;;;2.50;99.90;;;;;;5096342;28;20051;-83
2021/12/27 11:47:09;;;;;;;105.30;48.53;;;2.50;99.90;;;;;;5116696;28;20117;-85
2021/12/27 11:49:42;;;;;;;109.23;47.57;;;2.50;99.90;;;;;;5110066;28;20048;-85
2021/12/27 11:52:20;;;;;;;103.57;47.15;;;2.50;99.90;;;;;;5116931;28;20044;-76
2021/12/27 11:55:01;;;;;;;94.55;46.45;;;2.50;99.90;;;;;;5103634;28;20101;-80
2021/12/27 11:57:39;;;;;;;97.93;45.15;;;2.60;99.90;;;;;;5099238;28;20079;-82
2021/12/27 12:00:23;;;;;;;88.18;45.75;;;2.60;99.90;;;;;;5088729;28;20060;-81
2021/12/27 12:02:50;;;;;;;89.68;45.63;;;2.60;99.90;;;;;;5084022;28;20535;-85
2021/12/27 12:05:35;;;;;;;85.63;43.83;;;2.70;99.90;;;;;;5092544;28;20040;-84
2021/12/27 12:08:02;;;;;;;87.25;44.35;;;2.60;99.90;;;;;;5094448;28;20110;-84
2021/12/27 12:10:28;;;;;;;85.47;43.08;;;2.70;99.90;;;;;;5091775;28;20048;-79
2021/12/27 12:13:26;;;;;;;84.40;42.90;;;2.80;99.90;;;;;;5108602;28;20134;-84
2021/12/27 12:16:23;;;;;;;78.53;40.25;;;2.80;99.90;;;;;;5113655;28;20051;-86
2021/12/27 12:18:51;;;;;;;67.90;36.88;;;2.90;99.90;;;;;;5062906;28;20060;-78
2021/12/27 12:21:32;;;;;;;70.63;37.80;;;3.00;99.90;;;;;;5087184;28;20074;-85
2021/12/27 12:24:01;;;;;;;66.72;37.70;;;3.10;99.90;;;;;;5092270;28;20128;-80
2021/12/27 12:26:28;;;;;;;60.70;35.97;;;3.10;99.90;;;;;;5092177;28;20048;-81
2021/12/27 12:29:01;;;;;;;58.90;34.92;;;3.30;99.90;;;;;;5099566;28;20114;-79
2021/12/27 12:31:31;;;;;;;52.28;32.28;;;3.40;99.90;;;;;;5100081;28;20059;-86
2021/12/27 12:34:15;;;;;;;57.17;33.88;;;3.40;99.90;;;;;;5095988;28;20396;-77
2021/12/27 12:36:56;;;;;;;50.15;32.40;;;3.40;99.90;;;;;;5093104;28;20122;-86
2021/12/27 12:39:24;;;;;;;54.17;33.22;;;3.50;99.90;;;;;;5097725;28;20044;-84
2021/12/27 12:42:04;;;;;;;53.72;32.20;;;3.50;99.90;;;;;;5103043;28;20520;-77